Olympic Champion — SYWD — position and weather

sailwx.info

Track history (hours):
 
Tides and Currents Weather Stations Pressure Air Temp Water Temp Dewpoint Dewpoint Depression Visibility Wind Speed Wind Dir Waves Ship Positions

Olympic Champion

Last reported at 2017-May-21 15:56 UTC. Time now 2017-May-24 00:31 UTC.
Position N 44°02' E 013°29'.

Length 204 m; draft 6.5 m.

Type: Ship. MMSI: 237280000.

Date/timePositionNaut miles runAvg speedWind from/ knotsBaromVisibWave heightAir tempDewpointWater temp
2017-May-21 15:56N 44°02' E 013°29'1022.8
2017-May-21 15:30N 44°09' E 013°19'1122.4
2017-May-21 15:00N 44°18' E 013°11'1122.7
2017-May-21 14:31N 44°29' E 013°05'2222.4
2017-May-21 13:31N 44°50' E 012°54'1122.1
2017-May-21 13:01N 44°60' E 012°47'1121.5
2017-May-21 12:31N 45°08' E 012°38'1020.6
2017-May-21 12:01N 45°16' E 012°28'815.3
2017-May-21 11:30N 45°20' E 012°19'4 7.6
2017-May-21 11:00N 45°23' E 012°16'2 4.7
2017-May-21 10:30N 45°25' E 012°15'0 0.0
2017-May-21 10:00N 45°25' E 012°15'0 0.0
2017-May-21 09:30N 45°25' E 012°15'0 0.0
2017-May-21 09:00N 45°25' E 012°15'0 0.0
2017-May-21 08:30N 45°25' E 012°15'0 0.0
2017-May-21 08:00N 45°25' E 012°15'0 0.0
2017-May-21 07:30N 45°25' E 012°15'0 0.0
2017-May-21 07:00N 45°25' E 012°15'0 0.0
2017-May-21 06:30N 45°25' E 012°15'0 0.0
2017-May-21 06:00N 45°25' E 012°15'0 0.0
2017-May-21 05:30N 45°25' E 012°15'2 3.9
2017-May-21 05:00N 45°24' E 012°16'4 8.4
2017-May-21 04:30N 45°20' E 012°19'4 7.6
2017-May-21 04:00N 45°19' E 012°25'918.3
2017-May-21 03:31N 45°15' E 012°36'1120.9
2017-May-21 03:00N 45°09' E 012°48'1122.4
2017-May-21 02:31N 45°04' E 013°03'1122.4
2017-May-21 02:01N 44°59' E 013°17'1122.5
2017-May-21 01:30N 44°50' E 013°27'1122.7
2017-May-21 01:00N 44°41' E 013°36'1122.6
2017-May-21 00:30N 44°32' E 013°45'1122.5
2017-May-21 00:00N 44°22' E 013°54'1122.2
2017-May-20 23:30N 44°13' E 014°02'  
2017-May-14 18:10N 43°22' E 014°26'421.9
2017-May-14 18:00N 43°24' E 014°22'2121.5
2017-May-14 17:02N 43°39' E 014°02'721.6
2017-May-14 16:44N 43°43' E 013°55'1221.8
2017-May-14 16:10N 43°52' E 013°43'421.8
2017-May-14 16:00N 43°54' E 013°39'1121.8
2017-May-14 15:31N 44°02' E 013°29'1121.7
2017-May-14 15:01N 44°09' E 013°18'1121.3
2017-May-14 14:31N 44°19' E 013°11'1121.8
2017-May-14 14:01N 44°29' E 013°05'1121.7
2017-May-14 13:30N 44°39' E 012°60'1121.9
2017-May-14 13:01N 44°49' E 012°54'1121.4
2017-May-14 12:31N 44°59' E 012°48'1121.0
2017-May-14 12:01N 45°08' E 012°39'1019.4
2017-May-14 11:31N 45°15' E 012°30'917.1
2017-May-14 11:00N 45°20' E 012°20'4 8.3
2017-May-14 10:30N 45°23' E 012°15'3 5.2
2017-May-14 09:58N 45°25' E 012°15'0 0.0
2017-May-14 09:28N 45°25' E 012°15'0 0.0
2017-May-14 08:58N 45°25' E 012°15'0 0.0
2017-May-14 08:28N 45°25' E 012°15'0 0.0
2017-May-14 07:58N 45°25' E 012°15'0 0.0
2017-May-14 07:28N 45°25' E 012°15'0 0.0
2017-May-14 06:58N 45°25' E 012°15'0 0.0
2017-May-14 06:25N 45°25' E 012°15'0 0.0
2017-May-14 05:58N 45°25' E 012°15'0 0.0
2017-May-14 05:28N 45°25' E 012°15'0 0.8
2017-May-14 05:01N 45°25' E 012°16'4 8.8
2017-May-14 04:30N 45°21' E 012°16'5 9.6
2017-May-14 04:01N 45°19' E 012°23'817.0
2017-May-14 03:31N 45°16' E 012°34'918.0
2017-May-14 03:00N 45°11' E 012°44'1019.3
2017-May-14 02:30N 45°06' E 012°56'1121.4
2017-May-14 02:00N 45°01' E 013°10'1021.0
2017-May-14 01:30N 44°55' E 013°22'1021.0
2017-May-14 01:01N 44°47' E 013°31'1121.1
2017-May-14 00:30N 44°38' E 013°39'1021.0
2017-May-14 00:00N 44°30' E 013°48'1121.2
2017-May-13 23:30N 44°20' E 013°56'1121.4
2017-May-13 23:01N 44°11' E 014°03'1121.2
2017-May-13 22:31N 44°04' E 014°13'454 9.0
2017-May-11 19:54N 36°56' E 017°35'1823.6
2017-May-11 19:07N 36°50' E 017°14'723.2
2017-May-11 18:48N 36°47' E 017°06'2023.1
2017-May-11 17:56N 36°39' E 016°43'  
Track history (hours):
 
Tides and Currents Weather Stations Pressure Air Temp Water Temp Dewpoint Dewpoint Depression Visibility Wind Speed Wind Dir Waves Ship Positions

Olympic Champion

Last reported at 2017-May-21 15:56 UTC. Time now 2017-May-24 00:31 UTC.
Position N 44°02' E 013°29'.

Length 204 m; draft 6.5 m.

Type: Ship. MMSI: 237280000.

Date/timePositionNaut miles runAvg speedWind from/ knotsBaromVisibWave heightAir tempDewpointWater temp
2017-May-21 15:56N 44°02' E 013°29'1022.8
2017-May-21 15:30N 44°09' E 013°19'1122.4
2017-May-21 15:00N 44°18' E 013°11'1122.7
2017-May-21 14:31N 44°29' E 013°05'2222.4
2017-May-21 13:31N 44°50' E 012°54'1122.1
2017-May-21 13:01N 44°60' E 012°47'1121.5
2017-May-21 12:31N 45°08' E 012°38'1020.6
2017-May-21 12:01N 45°16' E 012°28'815.3
2017-May-21 11:30N 45°20' E 012°19'4 7.6
2017-May-21 11:00N 45°23' E 012°16'2 4.7
2017-May-21 10:30N 45°25' E 012°15'0 0.0
2017-May-21 10:00N 45°25' E 012°15'0 0.0
2017-May-21 09:30N 45°25' E 012°15'0 0.0
2017-May-21 09:00N 45°25' E 012°15'0 0.0
2017-May-21 08:30N 45°25' E 012°15'0 0.0
2017-May-21 08:00N 45°25' E 012°15'0 0.0
2017-May-21 07:30N 45°25' E 012°15'0 0.0
2017-May-21 07:00N 45°25' E 012°15'0 0.0
2017-May-21 06:30N 45°25' E 012°15'0 0.0
2017-May-21 06:00N 45°25' E 012°15'0 0.0
2017-May-21 05:30N 45°25' E 012°15'2 3.9
2017-May-21 05:00N 45°24' E 012°16'4 8.4
2017-May-21 04:30N 45°20' E 012°19'4 7.6
2017-May-21 04:00N 45°19' E 012°25'918.3
2017-May-21 03:31N 45°15' E 012°36'1120.9
2017-May-21 03:00N 45°09' E 012°48'1122.4
2017-May-21 02:31N 45°04' E 013°03'1122.4
2017-May-21 02:01N 44°59' E 013°17'1122.5
2017-May-21 01:30N 44°50' E 013°27'1122.7
2017-May-21 01:00N 44°41' E 013°36'1122.6
2017-May-21 00:30N 44°32' E 013°45'1122.5
2017-May-21 00:00N 44°22' E 013°54'1122.2
2017-May-20 23:30N 44°13' E 014°02'  
2017-May-14 18:10N 43°22' E 014°26'421.9
2017-May-14 18:00N 43°24' E 014°22'2121.5
2017-May-14 17:02N 43°39' E 014°02'721.6
2017-May-14 16:44N 43°43' E 013°55'1221.8
2017-May-14 16:10N 43°52' E 013°43'421.8
2017-May-14 16:00N 43°54' E 013°39'1121.8
2017-May-14 15:31N 44°02' E 013°29'1121.7
2017-May-14 15:01N 44°09' E 013°18'1121.3
2017-May-14 14:31N 44°19' E 013°11'1121.8
2017-May-14 14:01N 44°29' E 013°05'1121.7
2017-May-14 13:30N 44°39' E 012°60'1121.9
2017-May-14 13:01N 44°49' E 012°54'1121.4
2017-May-14 12:31N 44°59' E 012°48'1121.0
2017-May-14 12:01N 45°08' E 012°39'1019.4
2017-May-14 11:31N 45°15' E 012°30'917.1
2017-May-14 11:00N 45°20' E 012°20'4 8.3
2017-May-14 10:30N 45°23' E 012°15'3 5.2
2017-May-14 09:58N 45°25' E 012°15'0 0.0
2017-May-14 09:28N 45°25' E 012°15'0 0.0
2017-May-14 08:58N 45°25' E 012°15'0 0.0
2017-May-14 08:28N 45°25' E 012°15'0 0.0
2017-May-14 07:58N 45°25' E 012°15'0 0.0
2017-May-14 07:28N 45°25' E 012°15'0 0.0
2017-May-14 06:58N 45°25' E 012°15'0 0.0
2017-May-14 06:25N 45°25' E 012°15'0 0.0
2017-May-14 05:58N 45°25' E 012°15'0 0.0
2017-May-14 05:28N 45°25' E 012°15'0 0.8
2017-May-14 05:01N 45°25' E 012°16'4 8.8
2017-May-14 04:30N 45°21' E 012°16'5 9.6
2017-May-14 04:01N 45°19' E 012°23'817.0
2017-May-14 03:31N 45°16' E 012°34'918.0
2017-May-14 03:00N 45°11' E 012°44'1019.3
2017-May-14 02:30N 45°06' E 012°56'1121.4
2017-May-14 02:00N 45°01' E 013°10'1021.0
2017-May-14 01:30N 44°55' E 013°22'1021.0
2017-May-14 01:01N 44°47' E 013°31'1121.1
2017-May-14 00:30N 44°38' E 013°39'1021.0
2017-May-14 00:00N 44°30' E 013°48'1121.2
2017-May-13 23:30N 44°20' E 013°56'1121.4
2017-May-13 23:01N 44°11' E 014°03'1121.2
2017-May-13 22:31N 44°04' E 014°13'454 9.0
2017-May-11 19:54N 36°56' E 017°35'1823.6
2017-May-11 19:07N 36°50' E 017°14'723.2
2017-May-11 18:48N 36°47' E 017°06'2023.1
2017-May-11 17:56N 36°39' E 016°43'  

Dump ship's entire track history